Terminal Aerodrome Forecast
Issued by NWS

Home | Current Version | Previous Version | Text Only | Print | Product List | Glossary On
Versions: 1 2 3 4 5 6 7 8 9 10 11 12 13 14
000
FTUS42 TJSJ 191800 CCA
TAFJPS
TAF COR
TJPS 191834Z 1918/2018 12012G20KT P6SM VCSH SCT025 BKN060
     FM192230 08009KT P6SM FEW030 SCT070
     FM200300 07005KT P6SM FEW025 SCT050 PROB30 2006/2010 VRB12KT
      -SHRA SCT025 BKN040
      AMD NOT SKED TIL 200300=

USA.gov is the U.S. government's official web portal to all federal, state and local government web resources and services.